Aérodrome :
LOGIN :

S'inscrire | Disclaimer

   EN    FR    IT 

 










Légende :    VFR   VFR Marginal   IFR   IFR Intensif   IFR Très Intensif
Visi : 
Plafond : 
>= 8 km
>= 3000ft
5 à 8 km
1000 à 3000 ft
1500m à 5 km
500 à 1000 ft
800 à 1500m
200 à 500 ft
< 800m
< 200 ft
Symboles :   Orages  Brouillard  Fortes neiges  Fortes précipitations  Vent > 20 kt
SIGMETs :   Divers  Orages  Givrage  Turbulence  Onde Orograph.  Cendres Volcan.







- Altitude de l'aérodrome : 1 ft
- Voir les cartes d'approche


EGCK - Caernarfon

DERNIER METAR :
  • 241650Z 23011KT 9999 BKN035 BKN047 09/06 Q1030

METARs EXPIRÉS :
  • 241620Z 23010KT 9999 BKN038 09/06 Q1030
  • 241550Z 23012KT 9999 FEW037 BKN048 09/05 Q1031
  • 241520Z 23013KT 9999 FEW037 BKN043 09/05 Q1031
  • 241450Z 23013KT 9999 FEW035 BKN041 09/04 Q1031
  • 241420Z 24014KT 9999 FEW034 BKN040 10/05 Q1031

TAF TAF EGCK
Valide du 24 à 15h jusqu'au 25 à 00h UTC


241355Z 2415/2424 25014KT 9999 FEW035
TEMPO 2415/2424 27018G28KT
PROB30
TEMPO 2419/2424 6000 SHRA BKN014
Pas de NOTAMs connus pour ce terrain.



MET'MAP, la Météo Aéronautique d'un coup d'oeil ! - Copyright ORBIFLY Décembre 2007 - Disclaimer

ORBIFLY MET'MAP TEAM :

Programmation & Développement : Alexandra Zaïnal
Conception & Développement : Baudouin d'Aumeries
Co-Programmation & Développement : Marc-Olivier Méhu
Soutien technique & logistique : Manuel Goepfert

Contact : metmap@orbifly.com




SOURCES & CREDITS :

   NOAA